sensor_id;sensor_type;location;lat;lon;timestamp;P1;durP1;ratioP1;P2;durP2;ratioP2
14316;SDS011;7242;50.858;6.586;2023-07-09T00:02:33;9.77;;;6.20;;
14316;SDS011;7242;50.858;6.586;2023-07-09T00:05:34;7.90;;;5.80;;
14316;SDS011;7242;50.858;6.586;2023-07-09T00:08:34;9.37;;;6.13;;
14316;SDS011;7242;50.858;6.586;2023-07-09T00:11:39;7.07;;;5.70;;
14316;SDS011;7242;50.858;6.586;2023-07-09T00:14:40;8.20;;;5.60;;
14316;SDS011;7242;50.858;6.586;2023-07-09T00:17:41;7.10;;;5.30;;
14316;SDS011;7242;50.858;6.586;2023-07-09T00:20:42;9.80;;;5.73;;
14316;SDS011;7242;50.858;6.586;2023-07-09T00:23:43;8.23;;;5.93;;
14316;SDS011;7242;50.858;6.586;2023-07-09T00:26:44;7.97;;;5.63;;
14316;SDS011;7242;50.858;6.586;2023-07-09T00:29:49;6.77;;;5.77;;
14316;SDS011;7242;50.858;6.586;2023-07-09T00:32:52;8.37;;;5.87;;
14316;SDS011;7242;50.858;6.586;2023-07-09T00:35:54;7.50;;;5.73;;
14316;SDS011;7242;50.858;6.586;2023-07-09T00:38:55;8.93;;;5.87;;
14316;SDS011;7242;50.858;6.586;2023-07-09T00:41:59;7.23;;;5.90;;
14316;SDS011;7242;50.858;6.586;2023-07-09T00:45:00;7.93;;;5.77;;
14316;SDS011;7242;50.858;6.586;2023-07-09T00:48:09;8.53;;;5.63;;
14316;SDS011;7242;50.858;6.586;2023-07-09T00:51:15;8.20;;;5.63;;
14316;SDS011;7242;50.858;6.586;2023-07-09T00:54:24;8.17;;;5.87;;
14316;SDS011;7242;50.858;6.586;2023-07-09T00:57:32;9.67;;;6.00;;
14316;SDS011;7242;50.858;6.586;2023-07-09T01:00:34;7.83;;;5.80;;
14316;SDS011;7242;50.858;6.586;2023-07-09T01:03:50;7.80;;;5.97;;
14316;SDS011;7242;50.858;6.586;2023-07-09T01:06:54;8.40;;;6.30;;
14316;SDS011;7242;50.858;6.586;2023-07-09T01:09:56;9.00;;;6.37;;
14316;SDS011;7242;50.858;6.586;2023-07-09T01:12:57;7.03;;;5.97;;
14316;SDS011;7242;50.858;6.586;2023-07-09T01:15:58;7.63;;;6.00;;
14316;SDS011;7242;50.858;6.586;2023-07-09T01:18:59;7.20;;;5.77;;
14316;SDS011;7242;50.858;6.586;2023-07-09T01:22:00;8.20;;;5.80;;
14316;SDS011;7242;50.858;6.586;2023-07-09T01:25:03;8.27;;;6.50;;
14316;SDS011;7242;50.858;6.586;2023-07-09T01:28:07;8.07;;;6.37;;
14316;SDS011;7242;50.858;6.586;2023-07-09T01:31:08;8.00;;;5.97;;
14316;SDS011;7242;50.858;6.586;2023-07-09T01:34:10;8.27;;;5.30;;
14316;SDS011;7242;50.858;6.586;2023-07-09T01:37:12;6.63;;;5.47;;
14316;SDS011;7242;50.858;6.586;2023-07-09T01:40:14;8.80;;;6.30;;
14316;SDS011;7242;50.858;6.586;2023-07-09T01:43:16;9.37;;;6.20;;
14316;SDS011;7242;50.858;6.586;2023-07-09T01:46:17;8.80;;;6.30;;
14316;SDS011;7242;50.858;6.586;2023-07-09T01:49:18;7.07;;;5.93;;
14316;SDS011;7242;50.858;6.586;2023-07-09T01:52:20;7.73;;;6.73;;
14316;SDS011;7242;50.858;6.586;2023-07-09T01:55:22;7.57;;;6.23;;
14316;SDS011;7242;50.858;6.586;2023-07-09T01:58:23;9.70;;;6.20;;
14316;SDS011;7242;50.858;6.586;2023-07-09T02:01:25;7.97;;;6.27;;
14316;SDS011;7242;50.858;6.586;2023-07-09T02:04:25;7.17;;;5.97;;
14316;SDS011;7242;50.858;6.586;2023-07-09T02:07:27;7.90;;;6.60;;
14316;SDS011;7242;50.858;6.586;2023-07-09T02:10:28;9.97;;;6.33;;
14316;SDS011;7242;50.858;6.586;2023-07-09T02:13:29;8.40;;;6.30;;
14316;SDS011;7242;50.858;6.586;2023-07-09T02:16:30;10.80;;;7.20;;
14316;SDS011;7242;50.858;6.586;2023-07-09T02:19:30;9.13;;;6.67;;
14316;SDS011;7242;50.858;6.586;2023-07-09T02:22:32;8.60;;;5.97;;
14316;SDS011;7242;50.858;6.586;2023-07-09T02:25:34;7.73;;;5.97;;
14316;SDS011;7242;50.858;6.586;2023-07-09T02:28:35;8.23;;;6.67;;
14316;SDS011;7242;50.858;6.586;2023-07-09T02:31:36;6.77;;;6.17;;
14316;SDS011;7242;50.858;6.586;2023-07-09T02:34:37;7.30;;;6.50;;
14316;SDS011;7242;50.858;6.586;2023-07-09T02:37:38;7.73;;;6.00;;
14316;SDS011;7242;50.858;6.586;2023-07-09T02:40:39;7.70;;;6.37;;
14316;SDS011;7242;50.858;6.586;2023-07-09T02:43:40;8.77;;;6.43;;
14316;SDS011;7242;50.858;6.586;2023-07-09T02:46:41;8.97;;;6.63;;
14316;SDS011;7242;50.858;6.586;2023-07-09T02:49:42;8.57;;;6.53;;
14316;SDS011;7242;50.858;6.586;2023-07-09T02:52:43;9.37;;;6.97;;
14316;SDS011;7242;50.858;6.586;2023-07-09T02:55:44;9.27;;;6.80;;
14316;SDS011;7242;50.858;6.586;2023-07-09T02:58:45;7.43;;;6.57;;
14316;SDS011;7242;50.858;6.586;2023-07-09T03:01:46;9.07;;;6.80;;
14316;SDS011;7242;50.858;6.586;2023-07-09T03:04:47;10.37;;;7.23;;
14316;SDS011;7242;50.858;6.586;2023-07-09T03:07:48;11.00;;;6.87;;
14316;SDS011;7242;50.858;6.586;2023-07-09T03:10:49;8.20;;;6.57;;
14316;SDS011;7242;50.858;6.586;2023-07-09T03:13:50;10.03;;;7.03;;
14316;SDS011;7242;50.858;6.586;2023-07-09T03:16:50;12.03;;;7.60;;
14316;SDS011;7242;50.858;6.586;2023-07-09T03:19:51;9.70;;;6.90;;
14316;SDS011;7242;50.858;6.586;2023-07-09T03:22:52;10.77;;;7.70;;
14316;SDS011;7242;50.858;6.586;2023-07-09T03:25:54;9.73;;;6.83;;
14316;SDS011;7242;50.858;6.586;2023-07-09T03:28:55;9.07;;;6.77;;
14316;SDS011;7242;50.858;6.586;2023-07-09T03:31:56;9.47;;;6.87;;
14316;SDS011;7242;50.858;6.586;2023-07-09T03:34:56;8.47;;;6.40;;
14316;SDS011;7242;50.858;6.586;2023-07-09T03:37:57;9.97;;;7.47;;
14316;SDS011;7242;50.858;6.586;2023-07-09T03:40:58;9.23;;;7.17;;
14316;SDS011;7242;50.858;6.586;2023-07-09T03:43:59;8.47;;;7.17;;
14316;SDS011;7242;50.858;6.586;2023-07-09T03:47:00;9.33;;;7.13;;
14316;SDS011;7242;50.858;6.586;2023-07-09T03:50:00;7.77;;;6.97;;
14316;SDS011;7242;50.858;6.586;2023-07-09T03:53:01;9.00;;;7.23;;
14316;SDS011;7242;50.858;6.586;2023-07-09T03:56:02;11.20;;;7.23;;
14316;SDS011;7242;50.858;6.586;2023-07-09T03:59:03;11.97;;;8.20;;
14316;SDS011;7242;50.858;6.586;2023-07-09T04:02:03;11.10;;;7.30;;
14316;SDS011;7242;50.858;6.586;2023-07-09T04:05:05;9.83;;;7.20;;
14316;SDS011;7242;50.858;6.586;2023-07-09T04:08:08;8.43;;;7.17;;
14316;SDS011;7242;50.858;6.586;2023-07-09T04:11:09;10.05;;;7.00;;
14316;SDS011;7242;50.858;6.586;2023-07-09T04:14:10;8.67;;;6.97;;
14316;SDS011;7242;50.858;6.586;2023-07-09T04:17:11;11.40;;;7.37;;
14316;SDS011;7242;50.858;6.586;2023-07-09T04:20:12;9.43;;;7.03;;
14316;SDS011;7242;50.858;6.586;2023-07-09T04:23:14;16.23;;;7.23;;
14316;SDS011;7242;50.858;6.586;2023-07-09T04:26:15;11.53;;;7.23;;
14316;SDS011;7242;50.858;6.586;2023-07-09T04:29:15;7.17;;;6.40;;
14316;SDS011;7242;50.858;6.586;2023-07-09T04:32:16;11.80;;;7.33;;
14316;SDS011;7242;50.858;6.586;2023-07-09T04:35:17;8.80;;;7.07;;
14316;SDS011;7242;50.858;6.586;2023-07-09T04:38:18;11.20;;;6.90;;
14316;SDS011;7242;50.858;6.586;2023-07-09T04:41:19;10.97;;;6.70;;
14316;SDS011;7242;50.858;6.586;2023-07-09T04:44:20;10.67;;;6.67;;
14316;SDS011;7242;50.858;6.586;2023-07-09T04:47:20;7.97;;;6.17;;
14316;SDS011;7242;50.858;6.586;2023-07-09T04:50:22;7.50;;;6.00;;
14316;SDS011;7242;50.858;6.586;2023-07-09T04:53:22;10.07;;;6.80;;
14316;SDS011;7242;50.858;6.586;2023-07-09T04:56:24;8.00;;;6.80;;
14316;SDS011;7242;50.858;6.586;2023-07-09T04:59:24;9.20;;;7.13;;
14316;SDS011;7242;50.858;6.586;2023-07-09T05:02:25;10.20;;;7.20;;
14316;SDS011;7242;50.858;6.586;2023-07-09T05:05:26;9.00;;;6.70;;
14316;SDS011;7242;50.858;6.586;2023-07-09T05:08:27;10.17;;;6.77;;
14316;SDS011;7242;50.858;6.586;2023-07-09T05:11:28;8.93;;;7.13;;
14316;SDS011;7242;50.858;6.586;2023-07-09T05:14:29;10.63;;;6.60;;
14316;SDS011;7242;50.858;6.586;2023-07-09T05:17:29;9.27;;;6.80;;
14316;SDS011;7242;50.858;6.586;2023-07-09T05:20:30;7.70;;;5.83;;
14316;SDS011;7242;50.858;6.586;2023-07-09T05:23:31;7.13;;;6.07;;
14316;SDS011;7242;50.858;6.586;2023-07-09T05:26:32;10.10;;;6.23;;
14316;SDS011;7242;50.858;6.586;2023-07-09T05:29:33;9.43;;;6.37;;
14316;SDS011;7242;50.858;6.586;2023-07-09T05:32:34;8.10;;;6.23;;
14316;SDS011;7242;50.858;6.586;2023-07-09T05:35:36;6.37;;;5.77;;
14316;SDS011;7242;50.858;6.586;2023-07-09T05:38:37;9.03;;;6.00;;
14316;SDS011;7242;50.858;6.586;2023-07-09T05:41:37;10.23;;;6.30;;
14316;SDS011;7242;50.858;6.586;2023-07-09T05:44:38;9.03;;;5.87;;
14316;SDS011;7242;50.858;6.586;2023-07-09T05:47:39;9.23;;;6.07;;
14316;SDS011;7242;50.858;6.586;2023-07-09T05:50:40;8.67;;;6.50;;
14316;SDS011;7242;50.858;6.586;2023-07-09T05:53:41;8.97;;;5.50;;
14316;SDS011;7242;50.858;6.586;2023-07-09T05:56:42;7.90;;;6.10;;
14316;SDS011;7242;50.858;6.586;2023-07-09T05:59:43;7.17;;;5.77;;
14316;SDS011;7242;50.858;6.586;2023-07-09T06:02:44;8.13;;;5.47;;
14316;SDS011;7242;50.858;6.586;2023-07-09T06:05:45;8.10;;;6.00;;
14316;SDS011;7242;50.858;6.586;2023-07-09T06:08:45;7.63;;;5.50;;
14316;SDS011;7242;50.858;6.586;2023-07-09T06:11:46;7.30;;;5.50;;
14316;SDS011;7242;50.858;6.586;2023-07-09T06:14:47;7.47;;;5.80;;
14316;SDS011;7242;50.858;6.586;2023-07-09T06:17:48;7.07;;;5.20;;
14316;SDS011;7242;50.858;6.586;2023-07-09T06:20:49;6.03;;;4.90;;
14316;SDS011;7242;50.858;6.586;2023-07-09T06:23:51;7.40;;;5.07;;
14316;SDS011;7242;50.858;6.586;2023-07-09T06:26:52;6.20;;;5.10;;
14316;SDS011;7242;50.858;6.586;2023-07-09T06:29:53;7.93;;;5.57;;
14316;SDS011;7242;50.858;6.586;2023-07-09T06:32:53;5.60;;;4.60;;
14316;SDS011;7242;50.858;6.586;2023-07-09T06:35:58;7.20;;;4.90;;
14316;SDS011;7242;50.858;6.586;2023-07-09T06:39:00;6.77;;;4.80;;
14316;SDS011;7242;50.858;6.586;2023-07-09T06:42:01;8.20;;;5.10;;
14316;SDS011;7242;50.858;6.586;2023-07-09T06:45:22;7.73;;;4.60;;
14316;SDS011;7242;50.858;6.586;2023-07-09T06:48:24;8.77;;;4.67;;
14316;SDS011;7242;50.858;6.586;2023-07-09T06:51:26;5.50;;;4.63;;
14316;SDS011;7242;50.858;6.586;2023-07-09T06:54:27;6.03;;;4.60;;
14316;SDS011;7242;50.858;6.586;2023-07-09T06:57:28;5.70;;;4.35;;
14316;SDS011;7242;50.858;6.586;2023-07-09T07:00:28;6.05;;;4.28;;
14316;SDS011;7242;50.858;6.586;2023-07-09T07:03:29;6.78;;;4.57;;
14316;SDS011;7242;50.858;6.586;2023-07-09T07:06:32;6.07;;;4.40;;
14316;SDS011;7242;50.858;6.586;2023-07-09T07:09:33;6.40;;;4.25;;
14316;SDS011;7242;50.858;6.586;2023-07-09T07:12:41;4.78;;;4.18;;
14316;SDS011;7242;50.858;6.586;2023-07-09T07:15:47;5.78;;;4.38;;
14316;SDS011;7242;50.858;6.586;2023-07-09T07:18:49;6.78;;;4.55;;
14316;SDS011;7242;50.858;6.586;2023-07-09T07:21:50;7.00;;;4.10;;
14316;SDS011;7242;50.858;6.586;2023-07-09T07:24:51;5.15;;;3.78;;
14316;SDS011;7242;50.858;6.586;2023-07-09T07:27:52;4.18;;;3.47;;
14316;SDS011;7242;50.858;6.586;2023-07-09T07:31:00;5.43;;;3.45;;
14316;SDS011;7242;50.858;6.586;2023-07-09T07:34:01;4.97;;;3.90;;
14316;SDS011;7242;50.858;6.586;2023-07-09T07:37:02;7.13;;;3.58;;
14316;SDS011;7242;50.858;6.586;2023-07-09T07:40:03;7.32;;;3.88;;
14316;SDS011;7242;50.858;6.586;2023-07-09T07:43:04;5.95;;;3.90;;
14316;SDS011;7242;50.858;6.586;2023-07-09T07:46:06;6.50;;;3.63;;
14316;SDS011;7242;50.858;6.586;2023-07-09T07:49:07;7.90;;;3.50;;
14316;SDS011;7242;50.858;6.586;2023-07-09T07:52:08;7.05;;;3.63;;
14316;SDS011;7242;50.858;6.586;2023-07-09T07:55:08;6.38;;;3.35;;
14316;SDS011;7242;50.858;6.586;2023-07-09T07:58:11;4.40;;;3.55;;
14316;SDS011;7242;50.858;6.586;2023-07-09T08:01:13;4.70;;;3.35;;
14316;SDS011;7242;50.858;6.586;2023-07-09T08:04:13;7.13;;;3.65;;
14316;SDS011;7242;50.858;6.586;2023-07-09T08:07:14;5.63;;;3.65;;
14316;SDS011;7242;50.858;6.586;2023-07-09T08:10:15;5.10;;;3.53;;
14316;SDS011;7242;50.858;6.586;2023-07-09T08:13:17;4.07;;;3.60;;
14316;SDS011;7242;50.858;6.586;2023-07-09T08:16:18;6.97;;;3.75;;
14316;SDS011;7242;50.858;6.586;2023-07-09T08:19:19;6.15;;;3.70;;
14316;SDS011;7242;50.858;6.586;2023-07-09T08:22:20;6.00;;;3.30;;
14316;SDS011;7242;50.858;6.586;2023-07-09T08:25:21;4.95;;;3.30;;
14316;SDS011;7242;50.858;6.586;2023-07-09T08:28:22;5.45;;;3.20;;
14316;SDS011;7242;50.858;6.586;2023-07-09T08:31:23;5.70;;;3.75;;
14316;SDS011;7242;50.858;6.586;2023-07-09T08:34:24;5.60;;;3.58;;
14316;SDS011;7242;50.858;6.586;2023-07-09T08:37:25;5.88;;;3.85;;
14316;SDS011;7242;50.858;6.586;2023-07-09T08:40:26;5.90;;;3.45;;
14316;SDS011;7242;50.858;6.586;2023-07-09T08:46:57;6.45;;;3.72;;
14316;SDS011;7242;50.858;6.586;2023-07-09T08:50:05;5.75;;;3.78;;
14316;SDS011;7242;50.858;6.586;2023-07-09T08:53:17;6.32;;;3.22;;
14316;SDS011;7242;50.858;6.586;2023-07-09T08:56:31;5.90;;;3.70;;
14316;SDS011;7242;50.858;6.586;2023-07-09T08:59:33;4.72;;;3.97;;
14316;SDS011;7242;50.858;6.586;2023-07-09T09:02:49;4.78;;;3.80;;
14316;SDS011;7242;50.858;6.586;2023-07-09T09:05:52;4.53;;;3.85;;
14316;SDS011;7242;50.858;6.586;2023-07-09T09:15:29;6.93;;;3.85;;
14316;SDS011;7242;50.858;6.586;2023-07-09T09:18:32;4.07;;;3.30;;
14316;SDS011;7242;50.858;6.586;2023-07-09T09:21:39;5.93;;;3.22;;
14316;SDS011;7242;50.858;6.586;2023-07-09T09:25:01;4.15;;;2.88;;
14316;SDS011;7242;50.858;6.586;2023-07-09T09:28:11;6.30;;;3.22;;
14316;SDS011;7242;50.858;6.586;2023-07-09T09:31:13;5.75;;;2.75;;
14316;SDS011;7242;50.858;6.586;2023-07-09T09:34:20;4.22;;;3.17;;
14316;SDS011;7242;50.858;6.586;2023-07-09T09:37:24;4.40;;;3.13;;
14316;SDS011;7242;50.858;6.586;2023-07-09T09:40:33;6.53;;;3.30;;
14316;SDS011;7242;50.858;6.586;2023-07-09T09:43:35;4.82;;;3.03;;
14316;SDS011;7242;50.858;6.586;2023-07-09T09:46:36;6.32;;;2.92;;
14316;SDS011;7242;50.858;6.586;2023-07-09T09:49:40;3.97;;;3.10;;
14316;SDS011;7242;50.858;6.586;2023-07-09T09:52:42;4.97;;;3.00;;
14316;SDS011;7242;50.858;6.586;2023-07-09T09:55:44;3.42;;;3.05;;
14316;SDS011;7242;50.858;6.586;2023-07-09T09:58:45;4.85;;;2.70;;
14316;SDS011;7242;50.858;6.586;2023-07-09T10:01:46;4.80;;;2.80;;
14316;SDS011;7242;50.858;6.586;2023-07-09T10:04:47;5.85;;;2.75;;
14316;SDS011;7242;50.858;6.586;2023-07-09T10:11:16;4.78;;;2.80;;
14316;SDS011;7242;50.858;6.586;2023-07-09T10:18:12;6.22;;;3.03;;
14316;SDS011;7242;50.858;6.586;2023-07-09T10:21:15;3.15;;;2.53;;
14316;SDS011;7242;50.858;6.586;2023-07-09T10:27:53;5.50;;;2.97;;
14316;SDS011;7242;50.858;6.586;2023-07-09T10:38:01;5.35;;;2.90;;
14316;SDS011;7242;50.858;6.586;2023-07-09T10:41:25;5.38;;;2.88;;
14316;SDS011;7242;50.858;6.586;2023-07-09T10:44:31;5.50;;;3.00;;
14316;SDS011;7242;50.858;6.586;2023-07-09T10:47:41;5.63;;;3.10;;
14316;SDS011;7242;50.858;6.586;2023-07-09T10:50:49;5.97;;;3.03;;
14316;SDS011;7242;50.858;6.586;2023-07-09T10:53:55;4.28;;;2.80;;
14316;SDS011;7242;50.858;6.586;2023-07-09T11:00:14;6.68;;;3.10;;
14316;SDS011;7242;50.858;6.586;2023-07-09T11:03:24;5.47;;;2.90;;
14316;SDS011;7242;50.858;6.586;2023-07-09T11:06:37;6.28;;;2.80;;
14316;SDS011;7242;50.858;6.586;2023-07-09T11:09:44;6.07;;;3.15;;
14316;SDS011;7242;50.858;6.586;2023-07-09T11:12:51;6.55;;;3.47;;
14316;SDS011;7242;50.858;6.586;2023-07-09T11:16:02;4.68;;;3.08;;
14316;SDS011;7242;50.858;6.586;2023-07-09T11:19:10;4.00;;;2.90;;
14316;SDS011;7242;50.858;6.586;2023-07-09T11:22:17;5.00;;;3.25;;
14316;SDS011;7242;50.858;6.586;2023-07-09T11:25:28;4.53;;;2.78;;
14316;SDS011;7242;50.858;6.586;2023-07-09T11:28:33;5.15;;;3.00;;
14316;SDS011;7242;50.858;6.586;2023-07-09T11:31:39;3.97;;;2.95;;
14316;SDS011;7242;50.858;6.586;2023-07-09T11:34:45;4.85;;;2.90;;
14316;SDS011;7242;50.858;6.586;2023-07-09T11:37:47;5.32;;;2.85;;
14316;SDS011;7242;50.858;6.586;2023-07-09T11:40:56;4.80;;;2.90;;
14316;SDS011;7242;50.858;6.586;2023-07-09T11:47:22;4.55;;;2.97;;
14316;SDS011;7242;50.858;6.586;2023-07-09T11:50:28;3.08;;;2.78;;
14316;SDS011;7242;50.858;6.586;2023-07-09T11:56:54;4.18;;;2.55;;
14316;SDS011;7242;50.858;6.586;2023-07-09T11:59:59;4.65;;;2.90;;
14316;SDS011;7242;50.858;6.586;2023-07-09T12:03:00;6.47;;;3.10;;
14316;SDS011;7242;50.858;6.586;2023-07-09T12:06:02;4.20;;;2.97;;
14316;SDS011;7242;50.858;6.586;2023-07-09T12:09:05;3.67;;;2.83;;
14316;SDS011;7242;50.858;6.586;2023-07-09T12:12:24;4.72;;;3.38;;
14316;SDS011;7242;50.858;6.586;2023-07-09T12:15:26;5.85;;;3.13;;
14316;SDS011;7242;50.858;6.586;2023-07-09T12:18:28;7.28;;;4.30;;
14316;SDS011;7242;50.858;6.586;2023-07-09T12:21:30;5.60;;;3.90;;
14316;SDS011;7242;50.858;6.586;2023-07-09T12:24:39;4.25;;;3.30;;
14316;SDS011;7242;50.858;6.586;2023-07-09T12:27:43;7.88;;;3.17;;
14316;SDS011;7242;50.858;6.586;2023-07-09T12:30:44;5.45;;;3.42;;
14316;SDS011;7242;50.858;6.586;2023-07-09T12:33:49;3.97;;;3.08;;
14316;SDS011;7242;50.858;6.586;2023-07-09T12:36:52;4.82;;;3.13;;
14316;SDS011;7242;50.858;6.586;2023-07-09T12:39:55;6.07;;;3.08;;
14316;SDS011;7242;50.858;6.586;2023-07-09T12:42:56;5.15;;;3.22;;
14316;SDS011;7242;50.858;6.586;2023-07-09T12:46:00;4.18;;;2.85;;
14316;SDS011;7242;50.858;6.586;2023-07-09T12:49:04;5.15;;;3.33;;
14316;SDS011;7242;50.858;6.586;2023-07-09T12:52:12;4.22;;;2.90;;
14316;SDS011;7242;50.858;6.586;2023-07-09T12:55:21;3.50;;;3.20;;
14316;SDS011;7242;50.858;6.586;2023-07-09T12:58:25;4.47;;;3.03;;
14316;SDS011;7242;50.858;6.586;2023-07-09T13:01:28;7.40;;;3.30;;
14316;SDS011;7242;50.858;6.586;2023-07-09T13:04:37;3.85;;;2.80;;
14316;SDS011;7242;50.858;6.586;2023-07-09T13:07:39;5.18;;;2.80;;
14316;SDS011;7242;50.858;6.586;2023-07-09T13:10:41;6.13;;;3.25;;
14316;SDS011;7242;50.858;6.586;2023-07-09T13:13:42;4.10;;;2.70;;
14316;SDS011;7242;50.858;6.586;2023-07-09T13:17:01;7.40;;;3.10;;
14316;SDS011;7242;50.858;6.586;2023-07-09T13:20:04;5.68;;;3.40;;
14316;SDS011;7242;50.858;6.586;2023-07-09T13:23:12;5.43;;;2.80;;
14316;SDS011;7242;50.858;6.586;2023-07-09T13:26:15;4.63;;;3.25;;
14316;SDS011;7242;50.858;6.586;2023-07-09T13:29:18;5.28;;;3.10;;
14316;SDS011;7242;50.858;6.586;2023-07-09T13:32:19;5.63;;;3.33;;
14316;SDS011;7242;50.858;6.586;2023-07-09T13:35:20;8.35;;;3.40;;
14316;SDS011;7242;50.858;6.586;2023-07-09T13:38:21;8.25;;;3.25;;
14316;SDS011;7242;50.858;6.586;2023-07-09T13:41:24;9.00;;;3.65;;
14316;SDS011;7242;50.858;6.586;2023-07-09T13:44:27;6.57;;;3.58;;
14316;SDS011;7242;50.858;6.586;2023-07-09T13:47:29;8.90;;;3.60;;
14316;SDS011;7242;50.858;6.586;2023-07-09T13:50:29;8.40;;;3.60;;
14316;SDS011;7242;50.858;6.586;2023-07-09T13:53:31;5.45;;;3.53;;
14316;SDS011;7242;50.858;6.586;2023-07-09T13:56:32;7.10;;;3.38;;
14316;SDS011;7242;50.858;6.586;2023-07-09T13:59:33;6.07;;;3.28;;
14316;SDS011;7242;50.858;6.586;2023-07-09T14:02:33;7.22;;;3.20;;
14316;SDS011;7242;50.858;6.586;2023-07-09T14:05:34;7.03;;;3.40;;
14316;SDS011;7242;50.858;6.586;2023-07-09T14:08:35;5.30;;;3.30;;
14316;SDS011;7242;50.858;6.586;2023-07-09T14:11:46;5.73;;;2.90;;
14316;SDS011;7242;50.858;6.586;2023-07-09T14:14:49;5.67;;;3.20;;
14316;SDS011;7242;50.858;6.586;2023-07-09T14:17:51;12.33;;;4.33;;
14316;SDS011;7242;50.858;6.586;2023-07-09T14:20:52;10.00;;;4.13;;
14316;SDS011;7242;50.858;6.586;2023-07-09T14:23:53;13.27;;;4.93;;
14316;SDS011;7242;50.858;6.586;2023-07-09T14:26:55;11.93;;;6.07;;
14316;SDS011;7242;50.858;6.586;2023-07-09T14:29:57;11.07;;;6.90;;
14316;SDS011;7242;50.858;6.586;2023-07-09T14:32:59;16.13;;;6.83;;
14316;SDS011;7242;50.858;6.586;2023-07-09T14:36:00;11.87;;;7.63;;
14316;SDS011;7242;50.858;6.586;2023-07-09T14:39:01;11.87;;;7.77;;
14316;SDS011;7242;50.858;6.586;2023-07-09T14:42:02;12.90;;;8.33;;
14316;SDS011;7242;50.858;6.586;2023-07-09T14:45:04;13.17;;;9.73;;
14316;SDS011;7242;50.858;6.586;2023-07-09T14:48:16;13.83;;;10.90;;
14316;SDS011;7242;50.858;6.586;2023-07-09T14:51:18;14.93;;;11.80;;
14316;SDS011;7242;50.858;6.586;2023-07-09T14:54:20;13.83;;;12.17;;
14316;SDS011;7242;50.858;6.586;2023-07-09T14:57:24;15.00;;;12.33;;
14316;SDS011;7242;50.858;6.586;2023-07-09T15:00:26;16.53;;;12.80;;
14316;SDS011;7242;50.858;6.586;2023-07-09T15:03:27;16.13;;;14.40;;
14316;SDS011;7242;50.858;6.586;2023-07-09T15:06:29;19.13;;;15.43;;
14316;SDS011;7242;50.858;6.586;2023-07-09T15:09:35;16.83;;;15.00;;
14316;SDS011;7242;50.858;6.586;2023-07-09T15:12:37;18.23;;;14.47;;
14316;SDS011;7242;50.858;6.586;2023-07-09T15:15:37;17.47;;;14.90;;
14316;SDS011;7242;50.858;6.586;2023-07-09T15:18:39;22.23;;;16.37;;
14316;SDS011;7242;50.858;6.586;2023-07-09T15:21:39;18.83;;;16.97;;
14316;SDS011;7242;50.858;6.586;2023-07-09T15:24:40;18.40;;;16.50;;
14316;SDS011;7242;50.858;6.586;2023-07-09T15:27:42;19.90;;;17.80;;
14316;SDS011;7242;50.858;6.586;2023-07-09T15:30:44;17.53;;;15.60;;
14316;SDS011;7242;50.858;6.586;2023-07-09T15:33:45;15.70;;;14.00;;
14316;SDS011;7242;50.858;6.586;2023-07-09T15:36:47;17.50;;;15.43;;
14316;SDS011;7242;50.858;6.586;2023-07-09T15:39:49;17.60;;;14.53;;
14316;SDS011;7242;50.858;6.586;2023-07-09T15:42:54;17.47;;;15.60;;
14316;SDS011;7242;50.858;6.586;2023-07-09T15:45:57;13.87;;;12.43;;
14316;SDS011;7242;50.858;6.586;2023-07-09T15:49:00;18.03;;;15.80;;
14316;SDS011;7242;50.858;6.586;2023-07-09T15:52:01;15.90;;;13.57;;
14316;SDS011;7242;50.858;6.586;2023-07-09T15:55:03;14.60;;;13.10;;
14316;SDS011;7242;50.858;6.586;2023-07-09T15:58:04;13.87;;;11.63;;
14316;SDS011;7242;50.858;6.586;2023-07-09T16:01:04;12.93;;;11.63;;
14316;SDS011;7242;50.858;6.586;2023-07-09T16:04:07;13.20;;;11.17;;
14316;SDS011;7242;50.858;6.586;2023-07-09T16:07:09;12.23;;;9.90;;
14316;SDS011;7242;50.858;6.586;2023-07-09T16:10:11;13.23;;;10.93;;
14316;SDS011;7242;50.858;6.586;2023-07-09T16:13:15;12.27;;;10.97;;
14316;SDS011;7242;50.858;6.586;2023-07-09T16:16:20;12.90;;;11.50;;
14316;SDS011;7242;50.858;6.586;2023-07-09T16:19:23;10.57;;;9.37;;
14316;SDS011;7242;50.858;6.586;2023-07-09T16:22:25;13.30;;;11.77;;
14316;SDS011;7242;50.858;6.586;2023-07-09T16:25:29;13.40;;;11.87;;
14316;SDS011;7242;50.858;6.586;2023-07-09T16:28:32;14.90;;;13.30;;
14316;SDS011;7242;50.858;6.586;2023-07-09T16:31:33;14.50;;;12.17;;
14316;SDS011;7242;50.858;6.586;2023-07-09T16:34:34;12.57;;;11.27;;
14316;SDS011;7242;50.858;6.586;2023-07-09T16:37:35;12.17;;;10.97;;
14316;SDS011;7242;50.858;6.586;2023-07-09T16:40:36;12.00;;;10.60;;
14316;SDS011;7242;50.858;6.586;2023-07-09T16:43:37;14.83;;;11.07;;
14316;SDS011;7242;50.858;6.586;2023-07-09T16:46:38;12.43;;;9.80;;
14316;SDS011;7242;50.858;6.586;2023-07-09T16:49:39;13.57;;;11.27;;
14316;SDS011;7242;50.858;6.586;2023-07-09T16:52:44;11.40;;;9.33;;
14316;SDS011;7242;50.858;6.586;2023-07-09T16:55:46;12.03;;;10.73;;
14316;SDS011;7242;50.858;6.586;2023-07-09T16:58:48;11.77;;;10.57;;
14316;SDS011;7242;50.858;6.586;2023-07-09T17:01:49;10.87;;;9.27;;
14316;SDS011;7242;50.858;6.586;2023-07-09T17:04:50;12.03;;;9.70;;
14316;SDS011;7242;50.858;6.586;2023-07-09T17:07:52;11.30;;;10.20;;
14316;SDS011;7242;50.858;6.586;2023-07-09T17:10:53;14.17;;;10.53;;
14316;SDS011;7242;50.858;6.586;2023-07-09T17:13:54;11.67;;;10.17;;
14316;SDS011;7242;50.858;6.586;2023-07-09T17:16:55;8.63;;;7.70;;
14316;SDS011;7242;50.858;6.586;2023-07-09T17:19:56;9.30;;;8.30;;
14316;SDS011;7242;50.858;6.586;2023-07-09T17:22:57;9.97;;;8.60;;
14316;SDS011;7242;50.858;6.586;2023-07-09T17:25:59;9.83;;;8.57;;
14316;SDS011;7242;50.858;6.586;2023-07-09T17:29:00;7.80;;;7.00;;
14316;SDS011;7242;50.858;6.586;2023-07-09T17:32:13;8.90;;;7.00;;
14316;SDS011;7242;50.858;6.586;2023-07-09T17:35:17;10.10;;;8.00;;
14316;SDS011;7242;50.858;6.586;2023-07-09T17:38:18;8.93;;;7.27;;
14316;SDS011;7242;50.858;6.586;2023-07-09T17:41:24;7.23;;;6.10;;
14316;SDS011;7242;50.858;6.586;2023-07-09T17:44:24;7.90;;;7.10;;
14316;SDS011;7242;50.858;6.586;2023-07-09T17:47:26;7.70;;;7.00;;
14316;SDS011;7242;50.858;6.586;2023-07-09T17:50:27;8.93;;;6.70;;
14316;SDS011;7242;50.858;6.586;2023-07-09T17:53:30;7.90;;;6.57;;
14316;SDS011;7242;50.858;6.586;2023-07-09T17:56:32;10.67;;;9.37;;
14316;SDS011;7242;50.858;6.586;2023-07-09T17:59:39;8.73;;;7.10;;
14316;SDS011;7242;50.858;6.586;2023-07-09T18:02:42;8.37;;;6.60;;
14316;SDS011;7242;50.858;6.586;2023-07-09T18:05:43;9.50;;;5.77;;
14316;SDS011;7242;50.858;6.586;2023-07-09T18:08:44;10.60;;;7.37;;
14316;SDS011;7242;50.858;6.586;2023-07-09T18:11:46;10.73;;;8.27;;
14316;SDS011;7242;50.858;6.586;2023-07-09T18:14:48;31.27;;;28.37;;
14316;SDS011;7242;50.858;6.586;2023-07-09T18:17:51;15.97;;;14.17;;
14316;SDS011;7242;50.858;6.586;2023-07-09T18:20:53;13.37;;;12.10;;
14316;SDS011;7242;50.858;6.586;2023-07-09T18:23:54;11.30;;;9.03;;
14316;SDS011;7242;50.858;6.586;2023-07-09T18:26:54;10.63;;;8.47;;
14316;SDS011;7242;50.858;6.586;2023-07-09T18:29:56;16.63;;;10.13;;
14316;SDS011;7242;50.858;6.586;2023-07-09T18:32:57;11.20;;;8.53;;
14316;SDS011;7242;50.858;6.586;2023-07-09T18:35:59;8.90;;;6.63;;
14316;SDS011;7242;50.858;6.586;2023-07-09T18:39:00;10.23;;;7.53;;
14316;SDS011;7242;50.858;6.586;2023-07-09T18:42:01;10.20;;;8.90;;
14316;SDS011;7242;50.858;6.586;2023-07-09T18:45:01;10.47;;;8.47;;
14316;SDS011;7242;50.858;6.586;2023-07-09T18:48:36;11.33;;;9.57;;
14316;SDS011;7242;50.858;6.586;2023-07-09T18:51:30;14.37;;;10.70;;
14316;SDS011;7242;50.858;6.586;2023-07-09T18:54:30;10.43;;;8.67;;
14316;SDS011;7242;50.858;6.586;2023-07-09T18:57:31;13.03;;;10.97;;
14316;SDS011;7242;50.858;6.586;2023-07-09T19:00:32;13.47;;;10.50;;
14316;SDS011;7242;50.858;6.586;2023-07-09T19:03:34;11.73;;;9.47;;
14316;SDS011;7242;50.858;6.586;2023-07-09T19:06:36;15.23;;;10.43;;
14316;SDS011;7242;50.858;6.586;2023-07-09T19:09:37;12.53;;;10.53;;